createdAt,value
2022-12-31T11:42:19.243Z,17.5
2022-12-31T11:54:25.841Z,17.4
2022-12-31T12:00:15.822Z,17.4
2022-12-31T12:06:06.438Z,17.4
2022-12-31T12:11:59.272Z,17.5
2022-12-31T12:17:49.237Z,17.4
2022-12-31T12:23:43.299Z,17.5
2022-12-31T12:29:34.026Z,17.5
2022-12-31T12:35:23.801Z,17.6
2022-12-31T12:41:15.466Z,17.7
2022-12-31T12:47:05.944Z,17.8
2022-12-31T12:52:59.643Z,17.8
2022-12-31T12:58:49.561Z,17.9
2022-12-31T13:04:39.939Z,17.8
2022-12-31T13:10:29.537Z,17.9
2022-12-31T13:16:19.923Z,17.9
2022-12-31T13:22:10.493Z,18
2022-12-31T13:28:00.883Z,18.1
2022-12-31T13:33:51.271Z,18
2022-12-31T13:39:41.961Z,18
2022-12-31T13:45:32.461Z,17.9
2022-12-31T13:51:23.464Z,17.9
2022-12-31T13:57:12.376Z,17.8
2022-12-31T14:03:03.621Z,17.8
2022-12-31T14:08:53.113Z,17.7
2022-12-31T14:14:44.936Z,17.7
2022-12-31T14:20:34.527Z,17.7
2022-12-31T14:26:23.813Z,17.6
2022-12-31T14:32:14.254Z,17.6
2022-12-31T14:38:05.715Z,17.5
2022-12-31T14:43:56.134Z,17.4
2022-12-31T14:49:46.389Z,17.3
2022-12-31T14:55:37.349Z,17.3
2022-12-31T15:01:27.635Z,17.2
2022-12-31T15:07:20.201Z,17.1
2022-12-31T15:13:10.574Z,17.1
2022-12-31T15:19:00.618Z,17
2022-12-31T15:24:50.728Z,16.8
2022-12-31T15:30:41.380Z,16.8
2022-12-31T15:36:32.707Z,16.7
2022-12-31T15:42:42.454Z,16.7
2022-12-31T15:48:40.002Z,16.6
2022-12-31T15:54:34.453Z,16.5
2022-12-31T16:00:24.807Z,16.5
2022-12-31T16:06:15.964Z,16.4
2022-12-31T16:12:06.288Z,16.3
2022-12-31T16:17:56.864Z,16.3
2022-12-31T16:23:48.247Z,16.2
2022-12-31T16:29:39.662Z,16
2022-12-31T16:35:33.639Z,16
2022-12-31T16:41:26.083Z,15.9
2022-12-31T16:47:15.658Z,15.9
2022-12-31T16:53:05.667Z,15.8
2022-12-31T16:58:55.474Z,15.7
2022-12-31T17:04:49.778Z,15.6
2022-12-31T17:10:44.457Z,15.5
2022-12-31T17:16:35.182Z,15.5
2022-12-31T17:22:34.556Z,15.5
2022-12-31T17:28:27.269Z,15.4
2022-12-31T17:34:17.484Z,15.3
2022-12-31T17:40:40.860Z,15.3
2022-12-31T17:46:39.356Z,15.3
2022-12-31T17:52:28.999Z,15.1
2022-12-31T17:58:19.829Z,15.1
2022-12-31T18:04:17.779Z,15
2022-12-31T18:10:08.049Z,15
2022-12-31T18:15:59.200Z,15
2022-12-31T18:21:49.580Z,14.9
2022-12-31T18:27:40.474Z,14.9
2022-12-31T18:33:30.335Z,14.9
2022-12-31T18:39:22.341Z,14.8
2022-12-31T18:45:12.959Z,14.8
2022-12-31T18:51:02.653Z,14.8
2022-12-31T18:56:56.996Z,14.7
2022-12-31T19:02:48.185Z,14.7
2022-12-31T19:08:38.416Z,14.7
2022-12-31T19:14:29.171Z,14.7
2022-12-31T19:20:18.157Z,14.6
2022-12-31T19:26:07.894Z,14.6
2022-12-31T19:31:58.445Z,14.6
2022-12-31T19:37:51.192Z,14.6
2022-12-31T19:43:41.954Z,14.6
2022-12-31T19:49:33.952Z,14.5
2022-12-31T19:55:25.235Z,14.4
2022-12-31T20:01:15.559Z,14.5
2022-12-31T20:07:06.683Z,14.5
2022-12-31T20:12:57.164Z,14.5
2022-12-31T20:18:47.536Z,14.5
2022-12-31T20:24:37.352Z,14.5
2022-12-31T20:30:27.629Z,14.5
2022-12-31T20:36:18.721Z,14.4
2022-12-31T20:42:09.075Z,14.4
2022-12-31T20:47:59.446Z,14.5
2022-12-31T20:53:50.612Z,14.4
2022-12-31T20:59:40.634Z,14.4
2022-12-31T21:05:30.980Z,14.5
2022-12-31T21:11:22.357Z,14.7
2022-12-31T21:17:14.553Z,14.8
2022-12-31T21:23:04.532Z,14.8
2022-12-31T21:28:55.017Z,14.8
2022-12-31T21:34:55.334Z,15.1
2022-12-31T21:41:43.268Z,15
2022-12-31T21:47:37.414Z,15.1
2022-12-31T21:53:37.472Z,15.3
2022-12-31T21:59:28.265Z,15.4
2022-12-31T22:05:24.921Z,15.3
2022-12-31T22:11:16.918Z,15.3
2022-12-31T22:17:08.093Z,15
2022-12-31T22:22:58.822Z,15
2022-12-31T22:28:49.727Z,15
2022-12-31T22:34:40.127Z,15
2022-12-31T22:40:30.192Z,15
2022-12-31T22:46:21.614Z,15.1
2022-12-31T22:52:13.425Z,15.2
2022-12-31T22:58:05.033Z,15.3
2022-12-31T23:03:56.262Z,15
2022-12-31T23:09:47.578Z,14.8
2022-12-31T23:15:39.181Z,14.8
2022-12-31T23:21:32.005Z,14.7
2022-12-31T23:27:22.499Z,14.6
2022-12-31T23:33:13.634Z,14.7
2022-12-31T23:39:05.040Z,14.5
2022-12-31T23:44:56.992Z,14.5
2022-12-31T23:50:53.301Z,14.5
2022-12-31T23:56:45.491Z,14.4
